CYYF

Details ICAO CYYF (YYF)
Name PENTICTON
Region Canada
Timezone America/Vancouver (UTC-7.0)
Plans Departing 22
Arriving 26
Stats Elevation 1,129 ft / 344 m (AMSL)
Location 49.461250° -119.601385°
Runways 1
Magnetic Variation 15.506° E
Sunrise 2018-05-27 12:02:06 UTC / 2018-05-27 05:02:06 Local
Sunset 2018-05-28 03:51:59 UTC / 2018-05-27 20:51:59 Local
Advertisement - Login to hide

Runways

ID Width Length Bearing (true) Bearing (mag) Surface Threshold Offset Overrun Length
16 148 ft / 45 m 5,986 ft / 1,825 m 182.52° 167.01° Asphalt 0 ft / 0 m 0 ft / 0 m
34 148 ft / 45 m 5,986 ft / 1,825 m 2.52° 347.01° Asphalt 300 ft / 91 m 0 ft / 0 m

Approach Navaids

Runway Type Ident Frequency Range Bearing (true) Bearing (mag) Slope Elevation
16 Localiser XYF 110.30 MHz 18 nm / 33 km 180.00° 164.49° - 1,116 ft / 340 m (AMSL)

Map

Weather


0- 5 10 15 20 25 30 35+ Temperature / ° C

Clouds and Precipitation
Forecast for 2018-05-27 12:00 UTC. Updated an hour ago

Ground ~20,000 ft ~40,000 ft Winds

METAR

CYYF 271200Z 33004KT 300V040 15SM FEW250 09/04 A3014 RMK CI2 SLP207

TAF

TAF CYYF 270638Z 2707/2719 02007KT P6SM FEW250 BECMG 2709/2711 35005KT RMK NXT FCST BY 271300Z

Frequencies

Tower 118.50 MHz MF
Approach 133.50 MHz VANCOUVER APP/DEP
Warning: Do not use this data for real-world aviation or navigation. No guarantee of current accuracy is given.